Data for 07/03/2016

Time Sea-Level Adjusted Pressure Absolute Pressure Temperature Relative Humidity Dew Point   
(mb) (inHg) (mb) (inHg) (C) (F) (%) (C) (F)
00:05 1019 30.09 848 25.04 18.3 64.9 49 7.4 45.3
00:10 1019 30.09 848 25.04 17.9 64.2 51 7.9 46.2
00:15 1018 30.06 848 25.04 17.8 64 50 7.3 45.2
00:20 1018 30.06 848 25.04 17.8 64 52 8 46.4
00:25 1018 30.06 848 25.04 17.4 63.4 53 7.9 46.2
00:30 1018 30.06 847 25.01 17.1 62.8 54 8 46.4
00:35 1018 30.06 847 25.01 17 62.6 54 7.8 46
00:40 1018 30.06 847 25.01 17 62.6 56 8.3 46.9
00:45 1018 30.06 847 25.01 17 62.6 54 7.7 45.9
00:50 1018 30.06 847 25.01 17.1 62.7 54 7.8 46.1
00:55 1018 30.06 847 25.01 17 62.5 54 7.7 45.8
01:00 1018 30.06 847 25.01 16.6 61.9 54 7.5 45.4
01:05 1018 30.06 847 25.01 16.5 61.7 57 8.1 46.5
01:10 1018 30.06 847 25.01 16.5 61.7 55 7.5 45.4
01:15 1018 30.06 847 25.01 16.5 61.7 55 7.7 45.8
01:20 1018 30.06 847 25.01 16.5 61.7 55 7.5 45.4
01:25 1018 30.06 847 25.01 16.5 61.7 55 7.5 45.5
01:30 1018 30.06 847 25.01 16.2 61.2 58 8 46.4
01:35 1018 30.06 847 25.01 15.9 60.7 56 7.2 45
01:40 1018 30.06 847 25.01 15.9 60.7 57 7.5 45.5
01:45 1018 30.06 847 25.01 15.8 60.5 56 7.1 44.7
01:50 1018 30.06 847 25.01 16 60.7 56 7.4 45.3
01:55 1018 30.06 847 25.01 16 60.7 58 7.7 45.9
02:00 1018 30.06 847 25.01 15.6 60 59 7.5 45.6
02:05 1018 30.06 847 25.01 15.5 59.9 59 7.5 45.6
02:10 1018 30.06 847 25.01 15.4 59.8 59 7.6 45.7
02:15 1018 30.06 847 25.01 15.3 59.5 60 7.5 45.6
02:20 1018 30.06 847 25.01 15.1 59.3 60 7.5 45.5
02:25 1018 30.06 847 25.01 15.1 59.1 61 7.7 45.8
02:30 1018 30.06 847 25.01 14.9 58.8 61 7.6 45.7
02:35 1018 30.06 847 25.01 14.8 58.6 62 7.6 45.7
02:40 1018 30.06 847 25.01 14.7 58.5 62 7.6 45.7
02:45 1018 30.06 847 25.01 14.7 58.4 62 7.5 45.5
02:50 1018 30.06 847 25.01 14.8 58.6 60 7.2 44.9
02:55 1018 30.06 847 25.01 14.8 58.7 59 7 44.6
03:00 1018 30.06 847 25.01 14.9 58.7 60 7.2 45
03:05 1018 30.06 847 25.01 14.9 58.8 59 7 44.5
03:10 1018 30.06 847 25.01 14.8 58.7 59 7 44.6
03:15 1018 30.06 847 25.01 14.9 58.9 64 8.2 46.7
03:20 1018 30.06 847 25.01 14.5 58.1 61 7.1 44.8
03:25 1018 30.06 847 25.01 14 57.1 62 6.9 44.4
03:30 1018 30.06 847 25.01 13.7 56.6 63 6.8 44.3
03:35 1018 30.06 847 25.01 13.6 56.5 63 6.7 44
03:40 1018 30.06 847 25.01 13.5 56.3 63 6.8 44.2
03:45 1018 30.06 847 25.01 13.3 55.9 65 6.8 44.3
03:50 1018 30.06 847 25.01 13 55.4 65 6.7 44.1
03:55 1018 30.06 847 25.01 12.8 55.1 67 6.8 44.2
04:00 1018 30.06 847 25.01 12.7 54.8 67 6.6 44
04:05 1018 30.06 848 25.04 12.8 55 63 6 42.8
04:10 1018 30.06 847 25.01 13.2 55.7 61 6 42.8
04:15 1018 30.06 847 25.01 13.4 56.1 62 6.2 43.2
04:20 1018 30.06 847 25.01 13.4 56.2 61 6 42.9
04:25 1018 30.06 848 25.04 13.5 56.2 63 6.5 43.7
04:30 1018 30.06 848 25.04 13.1 55.6 63 6.3 43.4
04:35 1018 30.06 848 25.04 13 55.4 65 6.5 43.7
04:40 1018 30.06 848 25.04 12.9 55.1 65 6.4 43.6
04:45 1018 30.06 848 25.04 12.8 55.1 64 6.3 43.3
04:50 1018 30.06 848 25.04 12.8 55 65 6.4 43.6
04:55 1018 30.06 848 25.04 12.8 55 64 6.2 43.2
05:00 1018 30.06 848 25.04 12.7 54.8 64 6.2 43.1
05:05 1018 30.06 848 25.04 12.7 54.8 64 6.1 43.1
05:10 1018 30.06 848 25.04 12.8 55 64 6.3 43.3
05:15 1018 30.06 848 25.04 12.8 55 64 6.2 43.1
05:20 1018 30.06 848 25.04 13 55.5 63 6.2 43.1
05:25 1019 30.09 848 25.04 13.4 56.1 61 6.2 43.2
05:30 1018 30.06 848 25.04 13.8 56.8 60 6.1 43
05:35 1018 30.06 848 25.04 14 57.1 59 6.2 43.2
05:40 1018 30.06 848 25.04 14 57.3 58 6.1 42.9
05:45 1019 30.09 848 25.04 14.1 57.3 58 6 42.8
05:50 1019 30.09 848 25.04 14 57.2 58 6 42.7
05:55 1019 30.09 848 25.04 14.2 57.5 59 6.4 43.5
06:00 1019 30.09 848 25.04 14.5 58.1 56 5.9 42.6
06:05 1019 30.09 848 25.04 14.4 58 57 6.1 43
06:10 1019 30.09 848 25.04 14.7 58.5 56 6.2 43.2
06:15 1019 30.09 848 25.04 15.1 59.2 56 6.4 43.6
06:20 1019 30.09 848 25.04 15.6 60.2 53 6.2 43.2
06:25 1019 30.09 848 25.04 16.1 61 53 6.7 44
06:30 1019 30.09 848 25.04 16.3 61.4 50 5.9 42.7
06:35 1019 30.09 848 25.04 16.4 61.5 51 6.4 43.6
06:40 1019 30.09 848 25.04 16.7 62 53 7.2 45
06:45 1019 30.09 848 25.04 17.3 63.2 52 7.5 45.5
06:50 1019 30.09 848 25.04 17.9 64.3 48 6.9 44.3
06:55 1019 30.09 848 25.04 17.9 64.2 47 6.7 44
07:00 1019 30.09 848 25.04 18.3 65 45 6.4 43.6
07:05 1019 30.09 848 25.04 18.1 64.6 48 7.1 44.8
07:10 1019 30.09 848 25.04 18.7 65.7 46 6.9 44.4
07:15 1019 30.09 848 25.04 19 66.1 46 7.1 44.7
07:20 1019 30.09 848 25.04 19 66.2 45 7.1 44.7
07:25 1019 30.09 848 25.04 19 66.2 45 7.1 44.7
07:30 1019 30.09 848 25.04 19.5 67.2 44 7.2 45
07:35 1019 30.09 848 25.04 19.7 67.4 44 7.2 45
07:40 1019 30.09 848 25.04 19.3 66.7 44 6.9 44.4
07:45 1019 30.09 848 25.04 19.7 67.5 42 6.7 44
07:50 1019 30.09 848 25.04 20.4 68.7 43 7.5 45.4
07:55 1019 30.09 848 25.04 20 68 41 6.4 43.6
08:00 1019 30.09 848 25.04 20.1 68.2 42 6.8 44.3
08:05 1019 30.09 848 25.04 20.8 69.4 37 5.9 42.6
08:10 1019 30.09 848 25.04 21.3 70.3 38 6.4 43.6
08:15 1019 30.09 848 25.04 21.4 70.5 38 6.6 43.8
08:20 1019 30.09 848 25.04 20.8 69.5 42 7.5 45.4
08:25 1019 30.09 848 25.04 20.7 69.3 39 6.3 43.3
08:30 1019 30.09 848 25.04 21.3 70.3 36 5.9 42.6
08:35 1019 30.09 848 25.04 21.8 71.2 34 5.5 41.9
08:40 1019 30.09 848 25.04 21.8 71.2 34 5.6 42
08:45 1019 30.09 848 25.04 22 71.5 34 5.4 41.8
08:50 1018 30.06 848 25.04 22.1 71.9 33 5.3 41.5
08:55 1018 30.06 848 25.04 21.8 71.2 34 5.2 41.4
09:00 1018 30.06 848 25.04 22.4 72.2 31 4.8 40.6
09:05 1018 30.06 848 25.04 23.6 74.5 30 5.4 41.7
09:10 1018 30.06 848 25.04 24.1 75.3 30 5.7 42.2
09:15 1018 30.06 848 25.04 23.2 73.8 30 5 40.9
09:20 1018 30.06 848 25.04 23.9 75 31 5.8 42.4
09:25 1018 30.06 848 25.04 23.8 74.9 31 5.7 42.2
09:30 1018 30.06 848 25.04 23.6 74.4 31 5.9 42.6
09:35 1018 30.06 848 25.04 23.8 74.8 31 5.7 42.2
09:40 1018 30.06 848 25.04 24.3 75.7 31 6.4 43.5
09:45 1018 30.06 848 25.04 24.2 75.5 33 7.2 45
09:50 1018 30.06 848 25.04 23.4 74.1 32 6.2 43.1
09:55 1018 30.06 847 25.01 23.3 73.9 33 6.3 43.4
10:00 1018 30.06 847 25.01 23.8 74.8 32 6.5 43.7
10:05 1018 30.06 847 25.01 24.1 75.4 31 6.2 43.2
10:10 1018 30.06 847 25.01 23.1 73.5 32 5.6 42.1
10:15 1018 30.06 847 25.01 23.5 74.3 31 5.8 42.5
10:20 1018 30.06 847 25.01 24.7 76.5 27 5 41
10:25 1018 30.06 847 25.01 25 77 29 6.2 43.1
10:30 1018 30.06 847 25.01 24.8 76.6 28 5.2 41.4
10:35 1018 30.06 847 25.01 25.3 77.6 29 6.3 43.3
10:40 1018 30.06 847 25.01 25 76.9 29 5.9 42.6
10:45 1018 30.06 847 25.01 25.3 77.5 28 5.6 42.1
10:50 1018 30.06 847 25.01 25.7 78.2 27 5.6 42.2
10:55 1018 30.06 847 25.01 25.3 77.5 27 5.4 41.8
11:00 1018 30.06 847 25.01 25.9 78.5 28 6.3 43.4
11:05 1018 30.06 847 25.01 25.6 78 30 6.8 44.2
11:10 1018 30.06 847 25.01 25.3 77.6 28 5.6 42.1
11:15 1018 30.06 847 25.01 24.8 76.6 29 5.6 42.1
11:20 1018 30.06 847 25.01 24.7 76.4 29 5.6 42.1
11:25 1018 30.06 847 25.01 24.6 76.3 28 5.1 41.2
11:30 1017 30.03 847 25.01 25.5 77.9 27 5.6 42.1
11:35 1017 30.03 847 25.01 25.6 78.1 28 5.9 42.6
11:40 1017 30.03 846 24.98 25.6 78.1 27 5.2 41.4
11:45 1017 30.03 846 24.98 25.4 77.7 27 5.2 41.4
11:50 1017 30.03 846 24.98 25.2 77.3 27 5.1 41.2
11:55 1017 30.03 846 24.98 25.6 78.2 26 5.2 41.4
12:00 1017 30.03 846 24.98 26.1 79 24 4.5 40.1
12:05 1017 30.03 846 24.98 26.8 80.2 24 5 41
12:10 1017 30.03 846 24.98 26.9 80.5 26 5.9 42.6
12:15 1017 30.03 846 24.98 25.9 78.6 26 5.5 41.8
12:20 1017 30.03 846 24.98 25.7 78.2 26 4.7 40.5
12:25 1017 30.03 846 24.98 25.5 77.9 26 4.6 40.3
12:30 1017 30.03 846 24.98 26.5 79.6 23 4 39.3
12:35 1017 30.03 846 24.98 26.9 80.4 24 4.7 40.5
12:40 1016 30 846 24.98 26.6 79.9 26 6.1 42.9
12:45 1016 30 846 24.98 27 80.6 23 4.5 40.2
12:50 1016 30 845 24.95 27.9 82.2 23 5.2 41.3
12:55 1016 30 845 24.95 27.8 82.1 22 4.7 40.4
13:00 1016 30 845 24.95 27.6 81.7 22 4.6 40.2
13:05 1016 30 845 24.95 27.8 82.1 22 4.6 40.3
13:10 1016 30 845 24.95 27.7 81.8 23 4.9 40.8
13:15 1016 30 845 24.95 27.4 81.2 21 3.6 38.4
13:20 1016 30 845 24.95 27.2 81 23 4.6 40.3
13:25 1016 30 845 24.95 26.9 80.4 23 4.2 39.5
13:30 1016 30 845 24.95 26.7 80 23 4.3 39.8
13:35 1016 30 845 24.95 26.9 80.3 23 4.4 39.8
13:40 1016 30 845 24.95 26.8 80.3 24 4.7 40.5
13:45 1016 30 845 24.95 26.6 79.9 23 4 39.2
13:50 1016 30 845 24.95 26.3 79.3 24 4.5 40.1
13:55 1016 30 845 24.95 26.1 79 29 7.1 44.8
14:00 1017 30.03 846 24.98 23.2 73.8 34 6.8 44.2
14:05 1017 30.03 846 24.98 21.5 70.8 48 10.2 50.3
14:10 1018 30.06 847 25.01 20.1 68.2 55 10.9 51.5
14:15 1017 30.03 847 25.01 18.5 65.3 56 9.5 49.1
14:20 1017 30.03 847 25.01 18.1 64.5 53 8.5 47.3
14:25 1017 30.03 847 25.01 18.5 65.4 59 10.4 50.8
14:30 1017 30.03 846 24.98 19 66.1 50 8.3 47
14:35 1017 30.03 846 24.98 20 68 38 5.5 41.9
14:40 1016 30 845 24.95 21.6 70.9 33 4.7 40.5
14:45 1016 30 845 24.95 23.4 74.2 29 4.4 39.9
14:50 1016 30 845 24.95 24.5 76.1 28 5.2 41.4
14:55 1016 30 845 24.95 24.4 75.8 37 8.8 47.8
15:00 1016 30 845 24.95 23.3 73.9 33 6.2 43.1
15:05 1016 30 845 24.95 23.3 73.9 31 5.3 41.5
15:10 1016 30 845 24.95 23.9 74.9 28 4.5 40.1
15:15 1016 30 845 24.95 24.3 75.8 27 4.6 40.2
15:20 1016 30 845 24.95 25.3 77.6 25 4.1 39.4
15:25 1016 30 845 24.95 26.1 79 24 4.4 39.9
15:30 1016 30 845 24.95 26.4 79.6 24 4.8 40.6
15:35 1016 30 845 24.95 27 80.6 26 6.3 43.3
15:40 1016 30 845 24.95 27.2 80.9 26 6.1 43
15:45 1016 30 845 24.95 26.1 78.9 26 5.5 41.9
15:50 1015 29.97 845 24.95 25.7 78.3 26 5.1 41.2
15:55 1015 29.97 845 24.95 26.2 79.1 26 5.3 41.5
16:00 1015 29.97 845 24.95 25.8 78.4 28 6.3 43.4
16:05 1015 29.97 845 24.95 25 77 31 7 44.5
16:10 1015 29.97 845 24.95 24.6 76.2 31 6.6 43.9
16:15 1015 29.97 845 24.95 24.9 76.9 31 6.9 44.4
16:20 1015 29.97 845 24.95 25.3 77.6 29 6 42.8
16:25 1016 30 845 24.95 25.4 77.7 29 6.2 43.1
16:30 1016 30 845 24.95 25.2 77.4 29 6.2 43.1
16:35 1016 30 845 24.95 24.9 76.9 30 6.6 43.9
16:40 1016 30 845 24.95 25 76.9 23 2.8 37
16:45 1016 30 845 24.95 24.6 76.2 26 4.3 39.7
16:50 1016 30 845 24.95 24 75.2 28 4.4 40
16:55 1016 30 845 24.95 23.6 74.6 33 6.6 43.8
17:00 1016 30 845 24.95 23.3 73.9 32 5.7 42.2
17:05 1016 30 845 24.95 23.7 74.6 32 6.2 43.1
17:10 1015 29.97 845 24.95 23.8 74.8 30 5.6 42.1
17:15 1015 29.97 845 24.95 23.9 74.9 30 5.4 41.7
17:20 1015 29.97 845 24.95 24.4 75.8 29 5.2 41.4
17:25 1015 29.97 845 24.95 24.5 76.2 27 4.8 40.6
17:30 1015 29.97 845 24.95 24.8 76.6 26 4.3 39.7
17:35 1016 30 845 24.95 24.6 76.3 28 5.1 41.2
17:40 1016 30 845 24.95 24.5 76.2 29 5.4 41.8
17:45 1016 30 845 24.95 24.7 76.5 30 6.1 43.1
17:50 1016 30 845 24.95 24.9 76.8 28 5.4 41.8
17:55 1016 30 845 24.95 25.2 77.4 28 5.6 42
18:00 1015 29.97 845 24.95 25.5 77.9 27 5.5 41.9
18:05 1015 29.97 845 24.95 25.7 78.3 25 4.7 40.4
18:10 1015 29.97 845 24.95 26.2 79.1 25 5.1 41.1
18:15 1015 29.97 845 24.95 26.1 79.1 25 4.7 40.4
18:20 1015 29.97 844 24.92 26 78.9 25 4.9 40.7
18:25 1015 29.97 844 24.92 25.7 78.3 25 4.5 40.1
18:30 1015 29.97 844 24.92 25.8 78.4 25 4.6 40.3
18:35 1015 29.97 844 24.92 25.5 77.8 26 4.9 40.8
18:40 1015 29.97 844 24.92 25.3 77.5 27 5.2 41.4
18:45 1015 29.97 844 24.92 25.1 77.1 28 5.5 41.9
18:50 1015 29.97 844 24.92 24.8 76.6 29 5.9 42.5
18:55 1015 29.97 844 24.92 24.4 75.9 29 5.4 41.8
19:00 1015 29.97 844 24.92 24 75.2 29 5 41
19:05 1015 29.97 844 24.92 23.5 74.4 30 5.1 41.2
19:10 1015 29.97 844 24.92 23.2 73.8 30 5 41.1
19:15 1015 29.97 844 24.92 23 73.4 31 5.2 41.4
19:20 1015 29.97 844 24.92 22.9 73.1 36 7.3 45.1
19:25 1015 29.97 844 24.92 22.6 72.7 40 8.4 47.1
19:30 1015 29.97 844 24.92 22.3 72.1 40 8.2 46.8
19:35 1015 29.97 844 24.92 22.2 71.9 40 8.2 46.8
19:40 1015 29.97 844 24.92 22 71.5 40 8 46.4
19:45 1015 29.97 844 24.92 21.8 71.3 41 8.3 46.9
19:50 1015 29.97 844 24.92 21.5 70.7 45 9.1 48.4
19:55 1015 29.97 844 24.92 21 69.8 48 9.7 49.5
20:00 1015 29.97 844 24.92 20.2 68.4 48 9.1 48.3
20:05 1015 29.97 844 24.92 19.9 67.8 50 9.3 48.8
20:10 1015 29.97 844 24.92 19.7 67.4 51 9.3 48.8
20:15 1015 29.97 845 24.95 19.6 67.3 49 8.6 47.5
20:20 1016 30 845 24.95 20 68 41 6.4 43.6
20:25 1016 30 845 24.95 20.5 69 40 6.6 43.9
20:30 1015 29.97 845 24.95 20.5 68.9 41 7 44.7
20:35 1016 30 845 24.95 20.3 68.5 41 6.8 44.3
20:40 1016 30 845 24.95 20.3 68.5 38 5.5 41.9
20:45 1016 30 845 24.95 20.6 69 36 5.2 41.3
20:50 1016 30 845 24.95 20.8 69.4 36 5.5 41.9
20:55 1016 30 845 24.95 20.5 69 42 7.2 45
21:00 1016 30 845 24.95 19.8 67.7 45 7.8 46.1
21:05 1016 30 845 24.95 19.4 66.9 50 8.9 48
21:10 1016 30 845 24.95 19.2 66.6 49 8.3 46.9
21:15 1016 30 845 24.95 18.9 66 50 8.4 47.1
21:20 1016 30 845 24.95 18.6 65.5 47 7.3 45.2
21:25 1016 30 845 24.95 18.7 65.6 47 7.1 44.8
21:30 1016 30 845 24.95 18.6 65.4 47 7 44.7
21:35 1016 30 845 24.95 18.4 65.1 48 7.4 45.3
21:40 1016 30 845 24.95 18.1 64.5 50 7.6 45.7
21:45 1016 30 845 24.95 17.9 64.2 51 7.7 45.8
21:50 1016 30 845 24.95 17.8 64 53 8.2 46.7
21:55 1016 30 845 24.95 17.5 63.5 54 8.2 46.8
22:00 1016 30 845 24.95 17.5 63.5 54 8.3 46.9
22:05 1016 30 845 24.95 17.4 63.3 56 8.5 47.3
22:10 1016 30 845 24.95 17.3 63.1 54 8.1 46.6
22:15 1016 30 845 24.95 17.5 63.5 51 7.5 45.5
22:20 1016 30 845 24.95 17.5 63.5 54 8.1 46.6
22:25 1016 30 845 24.95 17.1 62.9 54 7.9 46.2
22:30 1016 30 846 24.98 17 62.7 53 7.5 45.5
22:35 1016 30 846 24.98 17.1 62.7 54 7.7 45.9
22:40 1016 30 846 24.98 17 62.6 56 8.2 46.7
22:45 1017 30.03 846 24.98 16.7 62.1 56 7.9 46.2
22:50 1017 30.03 846 24.98 16.7 62 55 7.8 46
22:55 1017 30.03 846 24.98 16.6 61.8 58 8.4 47.1
23:00 1017 30.03 846 24.98 16.2 61.2 59 8.4 47
23:05 1017 30.03 846 24.98 15.9 60.7 59 8 46.4
23:10 1017 30.03 846 24.98 16 60.8 57 7.7 45.8
23:15 1017 30.03 846 24.98 16.1 60.9 58 7.9 46.2
23:20 1017 30.03 846 24.98 16.2 61.1 58 8 46.4
23:25 1017 30.03 846 24.98 16.5 61.7 56 7.9 46.2
23:30 1017 30.03 846 24.98 16.6 61.9 56 8 46.3
23:35 1017 30.03 846 24.98 16.7 62 56 7.9 46.3
23:40 1017 30.03 846 24.98 16.6 61.8 57 8.1 46.5
23:45 1017 30.03 846 24.98 16.4 61.4 58 8.2 46.7
23:50 1017 30.03 846 24.98 16.3 61.3 59 8.3 46.9
23:55 1017 30.03 846 24.98 15.9 60.7 61 8.6 47.4
24:00 1017 30.03 846 24.98 15.4 59.7 63 8.4 47.2